sensor_id;sensor_type;location;lat;lon;timestamp;P1;durP1;ratioP1;P2;durP2;ratioP2
63690;SDS011;49837;57.280;27.070;2023-08-31T00:00:10;39.4;;;20.7;;
63690;SDS011;49837;57.280;27.070;2023-08-31T00:01:08;41.4;;;21.0;;
63690;SDS011;49837;57.280;27.070;2023-08-31T00:02:08;36.7;;;19.4;;
63690;SDS011;49837;57.280;27.070;2023-08-31T00:03:09;37.5;;;19.5;;
63690;SDS011;49837;57.280;27.070;2023-08-31T00:04:09;43.8;;;20.1;;
63690;SDS011;49837;57.280;27.070;2023-08-31T00:05:09;34.7;;;19.4;;
63690;SDS011;49837;57.280;27.070;2023-08-31T00:06:10;38.3;;;19.2;;
63690;SDS011;49837;57.280;27.070;2023-08-31T00:07:10;38.1;;;21.0;;
63690;SDS011;49837;57.280;27.070;2023-08-31T00:08:10;41.0;;;19.7;;
63690;SDS011;49837;57.280;27.070;2023-08-31T00:09:11;38.4;;;19.2;;
63690;SDS011;49837;57.280;27.070;2023-08-31T00:10:11;39.0;;;19.7;;
63690;SDS011;49837;57.280;27.070;2023-08-31T00:11:12;42.8;;;19.7;;
63690;SDS011;49837;57.280;27.070;2023-08-31T00:12:12;37.2;;;19.9;;
63690;SDS011;49837;57.280;27.070;2023-08-31T00:13:13;39.8;;;20.0;;
63690;SDS011;49837;57.280;27.070;2023-08-31T00:14:13;40.9;;;19.0;;
63690;SDS011;49837;57.280;27.070;2023-08-31T00:15:13;41.1;;;19.0;;
63690;SDS011;49837;57.280;27.070;2023-08-31T00:16:14;37.4;;;19.2;;
63690;SDS011;49837;57.280;27.070;2023-08-31T00:17:14;43.3;;;20.1;;
63690;SDS011;49837;57.280;27.070;2023-08-31T00:18:15;38.5;;;19.1;;
63690;SDS011;49837;57.280;27.070;2023-08-31T00:19:15;35.1;;;18.7;;
63690;SDS011;49837;57.280;27.070;2023-08-31T00:20:15;36.5;;;19.1;;
63690;SDS011;49837;57.280;27.070;2023-08-31T00:21:16;38.7;;;19.6;;
63690;SDS011;49837;57.280;27.070;2023-08-31T00:22:16;37.4;;;19.4;;
63690;SDS011;49837;57.280;27.070;2023-08-31T00:23:17;44.6;;;19.4;;
63690;SDS011;49837;57.280;27.070;2023-08-31T00:24:17;36.4;;;19.1;;
63690;SDS011;49837;57.280;27.070;2023-08-31T00:25:17;40.2;;;19.2;;
63690;SDS011;49837;57.280;27.070;2023-08-31T00:26:18;38.4;;;19.5;;
63690;SDS011;49837;57.280;27.070;2023-08-31T00:27:18;38.6;;;19.6;;
63690;SDS011;49837;57.280;27.070;2023-08-31T00:28:19;38.7;;;19.0;;
63690;SDS011;49837;57.280;27.070;2023-08-31T00:29:19;40.6;;;18.6;;
63690;SDS011;49837;57.280;27.070;2023-08-31T00:30:19;41.9;;;19.3;;
63690;SDS011;49837;57.280;27.070;2023-08-31T00:31:20;38.5;;;19.0;;
63690;SDS011;49837;57.280;27.070;2023-08-31T00:32:20;38.5;;;19.2;;
63690;SDS011;49837;57.280;27.070;2023-08-31T00:33:20;37.1;;;19.0;;
63690;SDS011;49837;57.280;27.070;2023-08-31T00:34:21;40.8;;;18.8;;
63690;SDS011;49837;57.280;27.070;2023-08-31T00:35:21;38.8;;;19.3;;
63690;SDS011;49837;57.280;27.070;2023-08-31T00:36:22;37.1;;;19.0;;
63690;SDS011;49837;57.280;27.070;2023-08-31T00:37:22;39.0;;;18.7;;
63690;SDS011;49837;57.280;27.070;2023-08-31T00:38:22;38.9;;;19.0;;
63690;SDS011;49837;57.280;27.070;2023-08-31T00:39:23;39.4;;;18.7;;
63690;SDS011;49837;57.280;27.070;2023-08-31T00:40:23;39.2;;;18.2;;
63690;SDS011;49837;57.280;27.070;2023-08-31T00:41:24;38.5;;;18.3;;
63690;SDS011;49837;57.280;27.070;2023-08-31T00:42:25;35.4;;;17.9;;
63690;SDS011;49837;57.280;27.070;2023-08-31T00:43:25;35.9;;;19.0;;
63690;SDS011;49837;57.280;27.070;2023-08-31T00:44:25;36.9;;;18.3;;
63690;SDS011;49837;57.280;27.070;2023-08-31T00:45:25;38.6;;;17.9;;
63690;SDS011;49837;57.280;27.070;2023-08-31T00:46:26;34.9;;;18.2;;
63690;SDS011;49837;57.280;27.070;2023-08-31T00:47:26;41.5;;;18.9;;
63690;SDS011;49837;57.280;27.070;2023-08-31T00:48:27;40.5;;;18.8;;
63690;SDS011;49837;57.280;27.070;2023-08-31T00:49:27;34.3;;;18.5;;
63690;SDS011;49837;57.280;27.070;2023-08-31T00:50:27;32.3;;;17.9;;
63690;SDS011;49837;57.280;27.070;2023-08-31T00:51:28;39.1;;;18.4;;
63690;SDS011;49837;57.280;27.070;2023-08-31T00:52:28;39.3;;;18.5;;
63690;SDS011;49837;57.280;27.070;2023-08-31T00:53:29;39.5;;;18.9;;
63690;SDS011;49837;57.280;27.070;2023-08-31T00:54:29;34.4;;;18.5;;
63690;SDS011;49837;57.280;27.070;2023-08-31T00:55:29;37.9;;;18.6;;
63690;SDS011;49837;57.280;27.070;2023-08-31T00:56:30;40.3;;;19.0;;
63690;SDS011;49837;57.280;27.070;2023-08-31T00:57:30;37.8;;;18.9;;
63690;SDS011;49837;57.280;27.070;2023-08-31T00:58:31;36.8;;;18.8;;
63690;SDS011;49837;57.280;27.070;2023-08-31T00:59:31;36.3;;;18.8;;
63690;SDS011;49837;57.280;27.070;2023-08-31T01:01:37;33.4;;;17.6;;
63690;SDS011;49837;57.280;27.070;2023-08-31T01:04:48;38.5;;;18.3;;
63690;SDS011;49837;57.280;27.070;2023-08-31T01:06:02;40.4;;;18.7;;
63690;SDS011;49837;57.280;27.070;2023-08-31T01:06:51;35.8;;;18.4;;
63690;SDS011;49837;57.280;27.070;2023-08-31T01:09:03;33.3;;;17.8;;
63690;SDS011;49837;57.280;27.070;2023-08-31T01:11:07;36.0;;;18.3;;
63690;SDS011;49837;57.280;27.070;2023-08-31T01:12:07;34.5;;;17.6;;
63690;SDS011;49837;57.280;27.070;2023-08-31T01:13:11;36.3;;;17.6;;
63690;SDS011;49837;57.280;27.070;2023-08-31T01:14:13;34.7;;;18.4;;
63690;SDS011;49837;57.280;27.070;2023-08-31T01:15:13;34.2;;;17.6;;
63690;SDS011;49837;57.280;27.070;2023-08-31T01:16:14;35.7;;;17.4;;
63690;SDS011;49837;57.280;27.070;2023-08-31T01:17:14;34.4;;;18.0;;
63690;SDS011;49837;57.280;27.070;2023-08-31T01:18:16;38.6;;;17.6;;
63690;SDS011;49837;57.280;27.070;2023-08-31T01:20:19;34.7;;;17.4;;
63690;SDS011;49837;57.280;27.070;2023-08-31T01:21:23;32.2;;;16.9;;
63690;SDS011;49837;57.280;27.070;2023-08-31T01:22:40;30.8;;;17.0;;
63690;SDS011;49837;57.280;27.070;2023-08-31T01:23:27;35.5;;;16.8;;
63690;SDS011;49837;57.280;27.070;2023-08-31T01:24:26;33.6;;;17.3;;
63690;SDS011;49837;57.280;27.070;2023-08-31T01:25:26;31.5;;;17.0;;
63690;SDS011;49837;57.280;27.070;2023-08-31T01:26:27;38.4;;;17.5;;
63690;SDS011;49837;57.280;27.070;2023-08-31T01:27:27;35.7;;;17.1;;
63690;SDS011;49837;57.280;27.070;2023-08-31T01:28:27;34.1;;;17.4;;
63690;SDS011;49837;57.280;27.070;2023-08-31T01:29:29;32.5;;;17.1;;
63690;SDS011;49837;57.280;27.070;2023-08-31T01:30:31;32.3;;;17.5;;
63690;SDS011;49837;57.280;27.070;2023-08-31T01:31:29;31.9;;;17.3;;
63690;SDS011;49837;57.280;27.070;2023-08-31T01:32:30;32.1;;;17.4;;
63690;SDS011;49837;57.280;27.070;2023-08-31T01:33:30;35.6;;;16.8;;
63690;SDS011;49837;57.280;27.070;2023-08-31T01:34:30;32.9;;;16.9;;
63690;SDS011;49837;57.280;27.070;2023-08-31T01:35:33;33.7;;;16.7;;
63690;SDS011;49837;57.280;27.070;2023-08-31T01:36:32;33.8;;;17.3;;
63690;SDS011;49837;57.280;27.070;2023-08-31T01:37:40;31.6;;;17.0;;
63690;SDS011;49837;57.280;27.070;2023-08-31T01:38:39;29.8;;;17.1;;
63690;SDS011;49837;57.280;27.070;2023-08-31T01:39:41;38.8;;;16.9;;
63690;SDS011;49837;57.280;27.070;2023-08-31T01:41:46;32.4;;;17.1;;
63690;SDS011;49837;57.280;27.070;2023-08-31T01:42:50;34.9;;;17.2;;
63690;SDS011;49837;57.280;27.070;2023-08-31T01:43:50;37.4;;;16.8;;
63690;SDS011;49837;57.280;27.070;2023-08-31T01:44:51;37.9;;;16.0;;
63690;SDS011;49837;57.280;27.070;2023-08-31T01:45:51;37.7;;;17.2;;
63690;SDS011;49837;57.280;27.070;2023-08-31T01:46:52;31.7;;;16.3;;
63690;SDS011;49837;57.280;27.070;2023-08-31T01:47:52;28.0;;;15.4;;
63690;SDS011;49837;57.280;27.070;2023-08-31T01:48:52;32.0;;;16.9;;
63690;SDS011;49837;57.280;27.070;2023-08-31T01:49:53;34.2;;;16.7;;
63690;SDS011;49837;57.280;27.070;2023-08-31T01:50:53;32.4;;;16.6;;
63690;SDS011;49837;57.280;27.070;2023-08-31T01:51:53;32.0;;;16.7;;
63690;SDS011;49837;57.280;27.070;2023-08-31T01:52:54;34.9;;;16.6;;
63690;SDS011;49837;57.280;27.070;2023-08-31T01:53:54;27.5;;;15.7;;
63690;SDS011;49837;57.280;27.070;2023-08-31T01:54:55;32.4;;;16.5;;
63690;SDS011;49837;57.280;27.070;2023-08-31T01:55:55;29.3;;;17.0;;
63690;SDS011;49837;57.280;27.070;2023-08-31T01:56:55;34.9;;;16.7;;
63690;SDS011;49837;57.280;27.070;2023-08-31T01:57:56;28.4;;;16.2;;
63690;SDS011;49837;57.280;27.070;2023-08-31T01:58:56;35.2;;;16.4;;
63690;SDS011;49837;57.280;27.070;2023-08-31T01:59:57;30.3;;;16.0;;
63690;SDS011;49837;57.280;27.070;2023-08-31T02:00:57;28.7;;;15.9;;
63690;SDS011;49837;57.280;27.070;2023-08-31T02:01:57;29.5;;;16.0;;
63690;SDS011;49837;57.280;27.070;2023-08-31T02:02:58;29.6;;;16.0;;
63690;SDS011;49837;57.280;27.070;2023-08-31T02:03:58;34.2;;;16.3;;
63690;SDS011;49837;57.280;27.070;2023-08-31T02:04:58;32.5;;;15.6;;
63690;SDS011;49837;57.280;27.070;2023-08-31T02:05:59;27.2;;;14.7;;
63690;SDS011;49837;57.280;27.070;2023-08-31T02:06:59;33.8;;;15.6;;
63690;SDS011;49837;57.280;27.070;2023-08-31T02:08:00;33.8;;;15.8;;
63690;SDS011;49837;57.280;27.070;2023-08-31T02:09:00;26.5;;;15.1;;
63690;SDS011;49837;57.280;27.070;2023-08-31T02:10:00;29.8;;;14.5;;
63690;SDS011;49837;57.280;27.070;2023-08-31T02:11:01;31.2;;;15.2;;
63690;SDS011;49837;57.280;27.070;2023-08-31T02:12:01;30.5;;;15.0;;
63690;SDS011;49837;57.280;27.070;2023-08-31T02:13:02;25.6;;;14.9;;
63690;SDS011;49837;57.280;27.070;2023-08-31T02:14:02;34.2;;;16.1;;
63690;SDS011;49837;57.280;27.070;2023-08-31T02:15:06;32.0;;;14.6;;
63690;SDS011;49837;57.280;27.070;2023-08-31T02:16:04;29.5;;;14.1;;
63690;SDS011;49837;57.280;27.070;2023-08-31T02:17:04;30.2;;;14.7;;
63690;SDS011;49837;57.280;27.070;2023-08-31T02:18:04;36.8;;;15.1;;
63690;SDS011;49837;57.280;27.070;2023-08-31T02:19:05;29.0;;;14.0;;
63690;SDS011;49837;57.280;27.070;2023-08-31T02:20:06;28.6;;;14.9;;
63690;SDS011;49837;57.280;27.070;2023-08-31T02:21:06;27.4;;;14.0;;
63690;SDS011;49837;57.280;27.070;2023-08-31T02:22:06;29.9;;;14.9;;
63690;SDS011;49837;57.280;27.070;2023-08-31T02:23:06;25.3;;;13.7;;
63690;SDS011;49837;57.280;27.070;2023-08-31T02:24:07;25.4;;;14.3;;
63690;SDS011;49837;57.280;27.070;2023-08-31T02:25:08;28.8;;;14.6;;
63690;SDS011;49837;57.280;27.070;2023-08-31T02:26:09;28.8;;;14.2;;
63690;SDS011;49837;57.280;27.070;2023-08-31T02:27:08;24.7;;;13.4;;
63690;SDS011;49837;57.280;27.070;2023-08-31T02:28:08;22.9;;;14.0;;
63690;SDS011;49837;57.280;27.070;2023-08-31T02:29:09;34.9;;;14.1;;
63690;SDS011;49837;57.280;27.070;2023-08-31T02:30:09;26.9;;;13.9;;
63690;SDS011;49837;57.280;27.070;2023-08-31T02:31:10;25.4;;;13.1;;
63690;SDS011;49837;57.280;27.070;2023-08-31T02:32:10;29.2;;;14.1;;
63690;SDS011;49837;57.280;27.070;2023-08-31T02:33:10;26.7;;;14.3;;
63690;SDS011;49837;57.280;27.070;2023-08-31T02:34:11;27.6;;;14.2;;
63690;SDS011;49837;57.280;27.070;2023-08-31T02:35:11;26.5;;;13.7;;
63690;SDS011;49837;57.280;27.070;2023-08-31T02:36:12;28.5;;;13.8;;
63690;SDS011;49837;57.280;27.070;2023-08-31T02:37:12;26.4;;;14.3;;
63690;SDS011;49837;57.280;27.070;2023-08-31T02:38:13;26.1;;;13.9;;
63690;SDS011;49837;57.280;27.070;2023-08-31T02:39:13;26.5;;;14.4;;
63690;SDS011;49837;57.280;27.070;2023-08-31T02:40:13;28.4;;;14.6;;
63690;SDS011;49837;57.280;27.070;2023-08-31T02:41:14;26.1;;;13.6;;
63690;SDS011;49837;57.280;27.070;2023-08-31T02:42:14;28.3;;;13.6;;
63690;SDS011;49837;57.280;27.070;2023-08-31T02:43:14;25.8;;;13.8;;
63690;SDS011;49837;57.280;27.070;2023-08-31T02:44:15;28.9;;;14.1;;
63690;SDS011;49837;57.280;27.070;2023-08-31T02:45:15;26.8;;;14.5;;
63690;SDS011;49837;57.280;27.070;2023-08-31T02:46:16;28.8;;;13.3;;
63690;SDS011;49837;57.280;27.070;2023-08-31T02:47:16;26.4;;;12.9;;
63690;SDS011;49837;57.280;27.070;2023-08-31T02:48:16;29.7;;;13.6;;
63690;SDS011;49837;57.280;27.070;2023-08-31T02:49:17;25.4;;;12.7;;
63690;SDS011;49837;57.280;27.070;2023-08-31T02:50:17;28.5;;;13.7;;
63690;SDS011;49837;57.280;27.070;2023-08-31T02:51:18;27.8;;;14.0;;
63690;SDS011;49837;57.280;27.070;2023-08-31T02:52:18;27.0;;;13.8;;
63690;SDS011;49837;57.280;27.070;2023-08-31T02:53:18;25.3;;;13.5;;
63690;SDS011;49837;57.280;27.070;2023-08-31T02:54:19;26.8;;;12.7;;
63690;SDS011;49837;57.280;27.070;2023-08-31T02:55:19;22.7;;;13.1;;
63690;SDS011;49837;57.280;27.070;2023-08-31T02:56:19;26.2;;;13.4;;
63690;SDS011;49837;57.280;27.070;2023-08-31T02:57:20;25.0;;;13.3;;
63690;SDS011;49837;57.280;27.070;2023-08-31T02:58:20;28.2;;;13.7;;
63690;SDS011;49837;57.280;27.070;2023-08-31T02:59:21;29.8;;;13.2;;
63690;SDS011;49837;57.280;27.070;2023-08-31T03:00:21;23.3;;;13.1;;
63690;SDS011;49837;57.280;27.070;2023-08-31T03:01:22;22.2;;;12.3;;
63690;SDS011;49837;57.280;27.070;2023-08-31T03:02:22;22.7;;;12.7;;
63690;SDS011;49837;57.280;27.070;2023-08-31T03:03:22;28.9;;;13.3;;
63690;SDS011;49837;57.280;27.070;2023-08-31T03:04:23;25.4;;;13.1;;
63690;SDS011;49837;57.280;27.070;2023-08-31T03:05:23;25.8;;;13.4;;
63690;SDS011;49837;57.280;27.070;2023-08-31T03:06:23;30.2;;;13.3;;
63690;SDS011;49837;57.280;27.070;2023-08-31T03:07:24;29.7;;;13.8;;
63690;SDS011;49837;57.280;27.070;2023-08-31T03:08:24;22.9;;;12.9;;
63690;SDS011;49837;57.280;27.070;2023-08-31T03:09:25;25.3;;;14.4;;
63690;SDS011;49837;57.280;27.070;2023-08-31T03:10:25;23.1;;;12.5;;
63690;SDS011;49837;57.280;27.070;2023-08-31T03:11:25;24.5;;;12.7;;
63690;SDS011;49837;57.280;27.070;2023-08-31T03:12:26;25.4;;;13.0;;
63690;SDS011;49837;57.280;27.070;2023-08-31T03:13:26;25.2;;;13.2;;
63690;SDS011;49837;57.280;27.070;2023-08-31T03:14:27;24.5;;;12.7;;
63690;SDS011;49837;57.280;27.070;2023-08-31T03:15:27;26.9;;;12.7;;
63690;SDS011;49837;57.280;27.070;2023-08-31T03:16:27;26.5;;;13.0;;
63690;SDS011;49837;57.280;27.070;2023-08-31T03:17:28;28.7;;;13.9;;
63690;SDS011;49837;57.280;27.070;2023-08-31T03:18:28;30.5;;;13.9;;
63690;SDS011;49837;57.280;27.070;2023-08-31T03:19:29;29.9;;;13.5;;
63690;SDS011;49837;57.280;27.070;2023-08-31T03:20:29;26.6;;;13.6;;
63690;SDS011;49837;57.280;27.070;2023-08-31T03:21:29;26.7;;;13.1;;
63690;SDS011;49837;57.280;27.070;2023-08-31T03:22:30;26.5;;;13.9;;
63690;SDS011;49837;57.280;27.070;2023-08-31T03:23:30;29.8;;;13.9;;
63690;SDS011;49837;57.280;27.070;2023-08-31T03:24:31;26.8;;;12.9;;
63690;SDS011;49837;57.280;27.070;2023-08-31T03:25:31;23.2;;;12.4;;
63690;SDS011;49837;57.280;27.070;2023-08-31T03:26:31;25.7;;;13.1;;
63690;SDS011;49837;57.280;27.070;2023-08-31T03:27:32;27.1;;;12.2;;
63690;SDS011;49837;57.280;27.070;2023-08-31T03:28:32;22.0;;;12.7;;
63690;SDS011;49837;57.280;27.070;2023-08-31T03:29:33;26.2;;;13.0;;
63690;SDS011;49837;57.280;27.070;2023-08-31T03:30:33;25.9;;;12.8;;
63690;SDS011;49837;57.280;27.070;2023-08-31T03:31:33;29.7;;;13.3;;
63690;SDS011;49837;57.280;27.070;2023-08-31T03:32:34;25.2;;;12.4;;
63690;SDS011;49837;57.280;27.070;2023-08-31T03:33:34;24.6;;;12.8;;
63690;SDS011;49837;57.280;27.070;2023-08-31T03:34:34;26.2;;;13.1;;
63690;SDS011;49837;57.280;27.070;2023-08-31T03:35:35;27.2;;;12.9;;
63690;SDS011;49837;57.280;27.070;2023-08-31T03:36:35;28.1;;;12.7;;
63690;SDS011;49837;57.280;27.070;2023-08-31T03:37:36;24.0;;;12.5;;
63690;SDS011;49837;57.280;27.070;2023-08-31T03:38:37;28.6;;;12.9;;
63690;SDS011;49837;57.280;27.070;2023-08-31T03:39:36;23.8;;;12.9;;
63690;SDS011;49837;57.280;27.070;2023-08-31T03:40:37;27.3;;;13.1;;
63690;SDS011;49837;57.280;27.070;2023-08-31T03:41:37;22.1;;;12.7;;
63690;SDS011;49837;57.280;27.070;2023-08-31T03:42:38;26.2;;;12.5;;
63690;SDS011;49837;57.280;27.070;2023-08-31T03:43:38;23.1;;;12.4;;
63690;SDS011;49837;57.280;27.070;2023-08-31T03:44:38;25.2;;;12.2;;
63690;SDS011;49837;57.280;27.070;2023-08-31T03:45:39;21.5;;;12.2;;
63690;SDS011;49837;57.280;27.070;2023-08-31T03:46:39;20.2;;;12.6;;
63690;SDS011;49837;57.280;27.070;2023-08-31T03:47:40;20.9;;;12.2;;
63690;SDS011;49837;57.280;27.070;2023-08-31T03:48:40;24.4;;;12.1;;
63690;SDS011;49837;57.280;27.070;2023-08-31T03:49:40;27.4;;;12.2;;
63690;SDS011;49837;57.280;27.070;2023-08-31T03:50:41;25.7;;;12.7;;
63690;SDS011;49837;57.280;27.070;2023-08-31T03:51:41;25.8;;;12.2;;
63690;SDS011;49837;57.280;27.070;2023-08-31T03:52:42;22.4;;;12.7;;
63690;SDS011;49837;57.280;27.070;2023-08-31T03:53:42;24.7;;;11.8;;
63690;SDS011;49837;57.280;27.070;2023-08-31T03:54:42;23.8;;;12.1;;
63690;SDS011;49837;57.280;27.070;2023-08-31T03:55:43;25.2;;;12.9;;
63690;SDS011;49837;57.280;27.070;2023-08-31T03:56:43;23.7;;;12.3;;
63690;SDS011;49837;57.280;27.070;2023-08-31T03:57:44;23.2;;;12.6;;
63690;SDS011;49837;57.280;27.070;2023-08-31T03:58:44;26.0;;;12.3;;
63690;SDS011;49837;57.280;27.070;2023-08-31T03:59:44;25.7;;;12.4;;
63690;SDS011;49837;57.280;27.070;2023-08-31T04:00:48;22.2;;;12.7;;
63690;SDS011;49837;57.280;27.070;2023-08-31T04:01:46;24.0;;;12.1;;
63690;SDS011;49837;57.280;27.070;2023-08-31T04:02:46;24.8;;;12.0;;
63690;SDS011;49837;57.280;27.070;2023-08-31T04:03:47;22.5;;;11.7;;
63690;SDS011;49837;57.280;27.070;2023-08-31T04:04:47;24.1;;;11.8;;
63690;SDS011;49837;57.280;27.070;2023-08-31T04:05:47;22.9;;;12.2;;
63690;SDS011;49837;57.280;27.070;2023-08-31T04:06:48;21.5;;;12.5;;
63690;SDS011;49837;57.280;27.070;2023-08-31T04:07:48;22.8;;;12.1;;
63690;SDS011;49837;57.280;27.070;2023-08-31T04:08:49;25.4;;;12.1;;
63690;SDS011;49837;57.280;27.070;2023-08-31T04:09:49;26.6;;;12.1;;
63690;SDS011;49837;57.280;27.070;2023-08-31T04:10:49;25.9;;;12.3;;
63690;SDS011;49837;57.280;27.070;2023-08-31T04:11:50;30.6;;;12.6;;
63690;SDS011;49837;57.280;27.070;2023-08-31T04:12:50;20.4;;;12.1;;
63690;SDS011;49837;57.280;27.070;2023-08-31T04:13:51;27.0;;;12.6;;
63690;SDS011;49837;57.280;27.070;2023-08-31T04:14:51;22.9;;;11.7;;
63690;SDS011;49837;57.280;27.070;2023-08-31T04:15:54;21.8;;;11.6;;
63690;SDS011;49837;57.280;27.070;2023-08-31T04:16:52;18.6;;;11.4;;
63690;SDS011;49837;57.280;27.070;2023-08-31T04:17:52;21.7;;;11.6;;
63690;SDS011;49837;57.280;27.070;2023-08-31T04:18:53;21.6;;;12.0;;
63690;SDS011;49837;57.280;27.070;2023-08-31T04:19:53;23.5;;;11.9;;
63690;SDS011;49837;57.280;27.070;2023-08-31T04:20:53;24.1;;;11.8;;
63690;SDS011;49837;57.280;27.070;2023-08-31T04:21:54;25.5;;;11.6;;
63690;SDS011;49837;57.280;27.070;2023-08-31T04:22:54;28.1;;;12.4;;
63690;SDS011;49837;57.280;27.070;2023-08-31T04:23:55;22.8;;;11.7;;
63690;SDS011;49837;57.280;27.070;2023-08-31T04:24:55;25.1;;;11.6;;
63690;SDS011;49837;57.280;27.070;2023-08-31T04:25:55;24.9;;;10.9;;
63690;SDS011;49837;57.280;27.070;2023-08-31T04:26:56;18.5;;;11.4;;
63690;SDS011;49837;57.280;27.070;2023-08-31T04:27:56;22.8;;;11.6;;
63690;SDS011;49837;57.280;27.070;2023-08-31T04:28:57;22.3;;;11.8;;
63690;SDS011;49837;57.280;27.070;2023-08-31T04:29:58;18.6;;;11.4;;
63690;SDS011;49837;57.280;27.070;2023-08-31T04:30:57;22.2;;;11.5;;
63690;SDS011;49837;57.280;27.070;2023-08-31T04:31:58;22.6;;;11.4;;
63690;SDS011;49837;57.280;27.070;2023-08-31T04:32:58;20.8;;;11.3;;
63690;SDS011;49837;57.280;27.070;2023-08-31T04:33:59;21.2;;;12.1;;
63690;SDS011;49837;57.280;27.070;2023-08-31T04:34:59;20.8;;;11.4;;
63690;SDS011;49837;57.280;27.070;2023-08-31T04:35:59;21.7;;;11.8;;
63690;SDS011;49837;57.280;27.070;2023-08-31T04:37:00;22.6;;;11.7;;
63690;SDS011;49837;57.280;27.070;2023-08-31T04:38:00;19.8;;;11.0;;
63690;SDS011;49837;57.280;27.070;2023-08-31T04:39:01;25.4;;;11.7;;
63690;SDS011;49837;57.280;27.070;2023-08-31T04:40:01;25.4;;;12.6;;
63690;SDS011;49837;57.280;27.070;2023-08-31T04:41:01;22.3;;;11.5;;
63690;SDS011;49837;57.280;27.070;2023-08-31T04:42:02;20.7;;;11.4;;
63690;SDS011;49837;57.280;27.070;2023-08-31T04:43:03;23.6;;;11.1;;
63690;SDS011;49837;57.280;27.070;2023-08-31T04:44:03;19.7;;;11.2;;
63690;SDS011;49837;57.280;27.070;2023-08-31T04:45:03;22.3;;;11.6;;
63690;SDS011;49837;57.280;27.070;2023-08-31T04:46:03;21.5;;;11.5;;
63690;SDS011;49837;57.280;27.070;2023-08-31T04:47:04;22.7;;;11.5;;
63690;SDS011;49837;57.280;27.070;2023-08-31T04:48:04;21.7;;;11.7;;
63690;SDS011;49837;57.280;27.070;2023-08-31T04:49:05;26.8;;;12.4;;
63690;SDS011;49837;57.280;27.070;2023-08-31T04:50:05;26.7;;;11.1;;
63690;SDS011;49837;57.280;27.070;2023-08-31T04:51:05;24.0;;;11.3;;
63690;SDS011;49837;57.280;27.070;2023-08-31T04:52:06;21.3;;;11.7;;
63690;SDS011;49837;57.280;27.070;2023-08-31T04:53:06;21.0;;;11.2;;
63690;SDS011;49837;57.280;27.070;2023-08-31T04:54:07;21.2;;;11.2;;
63690;SDS011;49837;57.280;27.070;2023-08-31T04:55:07;21.2;;;11.2;;
63690;SDS011;49837;57.280;27.070;2023-08-31T04:56:07;21.1;;;11.4;;
63690;SDS011;49837;57.280;27.070;2023-08-31T04:57:08;21.4;;;11.4;;
63690;SDS011;49837;57.280;27.070;2023-08-31T04:58:08;24.4;;;11.4;;
63690;SDS011;49837;57.280;27.070;2023-08-31T04:59:09;23.1;;;11.1;;
63690;SDS011;49837;57.280;27.070;2023-08-31T05:00:09;21.0;;;11.3;;
63690;SDS011;49837;57.280;27.070;2023-08-31T05:01:09;20.8;;;11.2;;
63690;SDS011;49837;57.280;27.070;2023-08-31T05:02:10;19.2;;;10.7;;
63690;SDS011;49837;57.280;27.070;2023-08-31T05:03:10;22.3;;;10.8;;
63690;SDS011;49837;57.280;27.070;2023-08-31T05:04:11;23.4;;;11.4;;
63690;SDS011;49837;57.280;27.070;2023-08-31T05:05:11;22.7;;;10.6;;
63690;SDS011;49837;57.280;27.070;2023-08-31T05:06:11;21.4;;;11.0;;
63690;SDS011;49837;57.280;27.070;2023-08-31T05:07:12;22.6;;;11.1;;
63690;SDS011;49837;57.280;27.070;2023-08-31T05:08:12;20.1;;;11.4;;
63690;SDS011;49837;57.280;27.070;2023-08-31T05:09:13;21.9;;;11.1;;
63690;SDS011;49837;57.280;27.070;2023-08-31T05:10:13;22.3;;;10.1;;
63690;SDS011;49837;57.280;27.070;2023-08-31T05:11:14;23.0;;;10.6;;
63690;SDS011;49837;57.280;27.070;2023-08-31T05:12:14;20.0;;;10.5;;
63690;SDS011;49837;57.280;27.070;2023-08-31T05:13:14;18.7;;;10.3;;
63690;SDS011;49837;57.280;27.070;2023-08-31T05:14:15;20.5;;;11.1;;
63690;SDS011;49837;57.280;27.070;2023-08-31T05:15:15;19.2;;;10.4;;
63690;SDS011;49837;57.280;27.070;2023-08-31T05:16:15;22.2;;;11.0;;
63690;SDS011;49837;57.280;27.070;2023-08-31T05:17:16;22.4;;;10.8;;
63690;SDS011;49837;57.280;27.070;2023-08-31T05:18:16;18.8;;;10.0;;
63690;SDS011;49837;57.280;27.070;2023-08-31T05:19:17;20.6;;;10.8;;
63690;SDS011;49837;57.280;27.070;2023-08-31T05:20:17;18.5;;;10.7;;
63690;SDS011;49837;57.280;27.070;2023-08-31T05:21:17;22.6;;;10.7;;
63690;SDS011;49837;57.280;27.070;2023-08-31T05:22:18;24.4;;;10.0;;
63690;SDS011;49837;57.280;27.070;2023-08-31T05:23:18;18.9;;;10.0;;
63690;SDS011;49837;57.280;27.070;2023-08-31T05:24:19;22.7;;;11.0;;
63690;SDS011;49837;57.280;27.070;2023-08-31T05:25:19;18.8;;;9.8;;
63690;SDS011;49837;57.280;27.070;2023-08-31T05:26:19;18.5;;;10.3;;
63690;SDS011;49837;57.280;27.070;2023-08-31T05:27:20;20.8;;;9.9;;
63690;SDS011;49837;57.280;27.070;2023-08-31T05:28:20;18.2;;;10.3;;
63690;SDS011;49837;57.280;27.070;2023-08-31T05:29:21;17.0;;;10.1;;
63690;SDS011;49837;57.280;27.070;2023-08-31T05:30:21;18.6;;;10.0;;
63690;SDS011;49837;57.280;27.070;2023-08-31T05:31:21;20.4;;;9.6;;
63690;SDS011;49837;57.280;27.070;2023-08-31T05:32:22;24.4;;;10.3;;
63690;SDS011;49837;57.280;27.070;2023-08-31T05:33:22;18.1;;;10.0;;
63690;SDS011;49837;57.280;27.070;2023-08-31T05:34:24;15.0;;;9.5;;
63690;SDS011;49837;57.280;27.070;2023-08-31T05:35:23;20.0;;;9.7;;
63690;SDS011;49837;57.280;27.070;2023-08-31T05:36:24;25.7;;;10.1;;
63690;SDS011;49837;57.280;27.070;2023-08-31T05:37:24;23.4;;;10.4;;
63690;SDS011;49837;57.280;27.070;2023-08-31T05:38:24;18.5;;;9.8;;
63690;SDS011;49837;57.280;27.070;2023-08-31T05:39:25;22.7;;;10.0;;
63690;SDS011;49837;57.280;27.070;2023-08-31T05:40:25;20.4;;;9.7;;
63690;SDS011;49837;57.280;27.070;2023-08-31T05:41:26;19.1;;;10.1;;
63690;SDS011;49837;57.280;27.070;2023-08-31T05:42:26;18.9;;;10.1;;
63690;SDS011;49837;57.280;27.070;2023-08-31T05:43:26;19.4;;;9.4;;
63690;SDS011;49837;57.280;27.070;2023-08-31T05:44:27;16.5;;;9.4;;
63690;SDS011;49837;57.280;27.070;2023-08-31T05:45:27;20.1;;;10.0;;
63690;SDS011;49837;57.280;27.070;2023-08-31T05:46:28;18.2;;;9.9;;
63690;SDS011;49837;57.280;27.070;2023-08-31T05:47:28;18.1;;;9.8;;
63690;SDS011;49837;57.280;27.070;2023-08-31T05:48:28;19.4;;;9.3;;
63690;SDS011;49837;57.280;27.070;2023-08-31T05:49:29;19.8;;;10.3;;
63690;SDS011;49837;57.280;27.070;2023-08-31T05:50:29;17.5;;;10.3;;
63690;SDS011;49837;57.280;27.070;2023-08-31T05:51:30;19.0;;;9.3;;
63690;SDS011;49837;57.280;27.070;2023-08-31T05:52:30;18.4;;;9.4;;
63690;SDS011;49837;57.280;27.070;2023-08-31T05:53:31;18.0;;;9.6;;
63690;SDS011;49837;57.280;27.070;2023-08-31T05:54:31;21.0;;;9.7;;
63690;SDS011;49837;57.280;27.070;2023-08-31T05:55:31;17.9;;;8.9;;
63690;SDS011;49837;57.280;27.070;2023-08-31T05:56:32;18.9;;;9.4;;
63690;SDS011;49837;57.280;27.070;2023-08-31T05:57:32;16.0;;;9.1;;
63690;SDS011;49837;57.280;27.070;2023-08-31T05:58:34;15.3;;;9.0;;
63690;SDS011;49837;57.280;27.070;2023-08-31T05:59:33;19.6;;;9.3;;
63690;SDS011;49837;57.280;27.070;2023-08-31T06:00:33;16.9;;;9.6;;
63690;SDS011;49837;57.280;27.070;2023-08-31T06:01:34;19.7;;;9.6;;
63690;SDS011;49837;57.280;27.070;2023-08-31T06:02:34;16.9;;;9.7;;
63690;SDS011;49837;57.280;27.070;2023-08-31T06:03:35;17.2;;;9.4;;
63690;SDS011;49837;57.280;27.070;2023-08-31T06:04:35;19.1;;;9.5;;
63690;SDS011;49837;57.280;27.070;2023-08-31T06:05:35;18.1;;;9.6;;
63690;SDS011;49837;57.280;27.070;2023-08-31T06:06:36;15.7;;;9.2;;